createdAt,value
2022-07-31T00:00:15.349Z,7.40
2022-07-31T00:02:42.187Z,6.07
2022-07-31T00:05:09.560Z,8.43
2022-07-31T00:07:36.411Z,5.83
2022-07-31T00:10:04.953Z,7.73
2022-07-31T00:12:32.165Z,5.93
2022-07-31T00:14:58.913Z,6.50
2022-07-31T00:17:25.691Z,5.07
2022-07-31T00:19:52.588Z,5.23
2022-07-31T00:22:19.396Z,5.70
2022-07-31T00:24:46.112Z,5.47
2022-07-31T00:27:12.922Z,3.87
2022-07-31T00:29:42.499Z,8.33
2022-07-31T00:32:09.280Z,7.03
2022-07-31T00:34:35.979Z,4.40
2022-07-31T00:37:03.256Z,4.70
2022-07-31T00:39:31.066Z,6.77
2022-07-31T00:41:58.098Z,5.93
2022-07-31T00:44:25.205Z,6.17
2022-07-31T00:46:52.918Z,7.00
2022-07-31T00:49:20.409Z,5.60
2022-07-31T00:51:48.094Z,5.27
2022-07-31T00:54:22.702Z,7.57
2022-07-31T00:56:50.647Z,5.13
2022-07-31T00:59:24.283Z,7.63
2022-07-31T01:01:52.060Z,6.30
2022-07-31T01:04:19.867Z,4.43
2022-07-31T01:06:47.431Z,6.80
2022-07-31T01:09:15.269Z,7.97
2022-07-31T01:12:00.579Z,5.10
2022-07-31T01:14:32.901Z,2.93
2022-07-31T01:17:01.825Z,8.20
2022-07-31T01:19:42.765Z,8.50
2022-07-31T01:22:32.960Z,9.10
2022-07-31T01:25:07.414Z,4.73
2022-07-31T01:27:52.494Z,5.27
2022-07-31T01:30:26.621Z,7.13
2022-07-31T01:33:02.916Z,7.30
2022-07-31T01:35:35.656Z,8.00
2022-07-31T01:38:10.168Z,7.97
2022-07-31T01:40:47.331Z,5.53
2022-07-31T01:43:22.451Z,8.80
2022-07-31T01:45:54.738Z,5.80
2022-07-31T01:48:23.122Z,10.17
2022-07-31T01:50:53.970Z,7.40
2022-07-31T01:53:24.059Z,5.33
2022-07-31T01:56:02.106Z,7.80
2022-07-31T01:58:35.400Z,9.57
2022-07-31T02:01:04.809Z,7.97
2022-07-31T02:03:42.735Z,7.67
2022-07-31T02:06:12.998Z,6.97
2022-07-31T02:08:40.894Z,11.80
2022-07-31T02:11:09.103Z,9.73
2022-07-31T02:13:37.434Z,9.50
2022-07-31T02:16:05.692Z,7.23
2022-07-31T02:18:34.188Z,8.77
2022-07-31T02:21:01.104Z,7.00
2022-07-31T02:23:27.939Z,7.60
2022-07-31T02:25:54.902Z,8.40
2022-07-31T02:28:23.282Z,9.47
2022-07-31T02:30:51.776Z,8.07
2022-07-31T02:33:21.759Z,8.37
2022-07-31T02:35:50.348Z,9.30
2022-07-31T02:38:22.786Z,7.13
2022-07-31T02:40:58.856Z,7.10
2022-07-31T02:43:30.409Z,6.63
2022-07-31T02:45:58.716Z,9.03
2022-07-31T02:48:26.497Z,7.40
2022-07-31T02:50:53.703Z,10.87
2022-07-31T02:53:21.129Z,7.27
2022-07-31T02:55:49.528Z,8.27
2022-07-31T02:58:16.292Z,7.57
2022-07-31T03:00:43.262Z,9.03
2022-07-31T03:03:09.996Z,8.50
2022-07-31T03:05:36.678Z,9.27
2022-07-31T03:08:03.511Z,9.93
2022-07-31T03:10:30.358Z,8.43
2022-07-31T03:12:58.270Z,7.73
2022-07-31T03:15:27.111Z,11.47
2022-07-31T03:17:55.034Z,9.57
2022-07-31T03:20:22.425Z,14.27
2022-07-31T03:22:49.546Z,11.53
2022-07-31T03:25:21.744Z,8.77
2022-07-31T03:27:55.817Z,11.17
2022-07-31T03:30:27.635Z,7.83
2022-07-31T03:32:55.949Z,12.07
2022-07-31T03:35:24.790Z,8.47
2022-07-31T03:37:52.721Z,9.00
2022-07-31T03:40:20.259Z,9.73
2022-07-31T03:42:49.671Z,8.23
2022-07-31T03:45:17.477Z,9.37
2022-07-31T03:47:44.621Z,8.00
2022-07-31T03:50:11.520Z,8.60
2022-07-31T03:52:39.919Z,8.63
2022-07-31T03:55:08.287Z,11.10
2022-07-31T03:57:37.914Z,10.20
2022-07-31T04:00:07.406Z,11.47
2022-07-31T04:02:44.570Z,10.13
2022-07-31T04:05:11.522Z,10.00
2022-07-31T04:07:38.281Z,11.23
2022-07-31T04:10:05.481Z,12.33
2022-07-31T04:12:32.348Z,11.47
2022-07-31T04:14:59.190Z,10.17
2022-07-31T04:17:25.970Z,12.40
2022-07-31T04:19:53.073Z,12.07
2022-07-31T04:22:19.987Z,13.50
2022-07-31T04:24:46.715Z,11.93
2022-07-31T04:27:17.596Z,11.70
2022-07-31T04:29:45.462Z,13.57
2022-07-31T04:32:12.504Z,13.77
2022-07-31T04:34:39.772Z,12.07
2022-07-31T04:37:06.901Z,15.77
2022-07-31T04:39:34.368Z,14.83
2022-07-31T04:42:01.686Z,13.70
2022-07-31T04:44:28.695Z,15.83
2022-07-31T04:47:00.270Z,13.60
2022-07-31T04:49:27.295Z,14.23
2022-07-31T04:51:54.087Z,16.47
2022-07-31T04:54:20.859Z,15.50
2022-07-31T04:56:48.571Z,16.63
2022-07-31T04:59:20.187Z,14.63
2022-07-31T05:01:48.115Z,17.27
2022-07-31T05:04:15.015Z,18.37
2022-07-31T05:06:44.130Z,17.73
2022-07-31T05:09:18.417Z,16.97
2022-07-31T05:11:47.545Z,17.97
2022-07-31T05:14:16.633Z,15.77
2022-07-31T05:16:43.960Z,15.40
2022-07-31T05:19:14.889Z,15.50
2022-07-31T05:21:49.659Z,16.23
2022-07-31T05:24:22.525Z,16.37
2022-07-31T05:26:59.276Z,19.13
2022-07-31T05:29:26.912Z,15.33
2022-07-31T05:31:59.523Z,14.93
2022-07-31T05:34:30.173Z,18.63
2022-07-31T05:36:58.600Z,16.83
2022-07-31T05:39:26.088Z,18.23
2022-07-31T05:41:53.223Z,15.47
2022-07-31T05:44:19.999Z,17.27
2022-07-31T05:46:46.781Z,14.90
2022-07-31T05:49:13.692Z,19.07
2022-07-31T05:51:43.832Z,16.03
2022-07-31T05:54:10.950Z,16.47
2022-07-31T05:56:37.705Z,13.63
2022-07-31T05:59:04.581Z,16.03
2022-07-31T06:01:31.429Z,14.53
2022-07-31T06:03:58.788Z,14.47
2022-07-31T06:06:26.044Z,12.07
2022-07-31T06:08:53.007Z,13.53
2022-07-31T06:11:19.927Z,16.93
2022-07-31T06:13:47.378Z,14.40
2022-07-31T06:16:14.950Z,10.43
2022-07-31T06:18:42.739Z,12.30
2022-07-31T06:21:09.973Z,11.93
2022-07-31T06:23:37.362Z,10.93
2022-07-31T06:26:07.521Z,13.60
2022-07-31T06:28:47.913Z,12.97
2022-07-31T06:31:21.234Z,9.43
2022-07-31T06:33:48.877Z,11.23
2022-07-31T06:36:17.353Z,11.07
2022-07-31T06:38:44.263Z,9.70
2022-07-31T06:41:11.730Z,9.20
2022-07-31T06:43:38.674Z,12.90
2022-07-31T06:46:05.806Z,9.60
2022-07-31T06:48:32.499Z,10.27
2022-07-31T06:51:30.307Z,9.57
2022-07-31T06:53:47.278Z,9.83
2022-07-31T06:56:14.381Z,8.60
2022-07-31T06:58:41.155Z,13.23
2022-07-31T07:01:08.083Z,9.00
2022-07-31T07:03:35.573Z,11.73
2022-07-31T07:06:03.522Z,14.00
2022-07-31T07:08:30.317Z,14.60
2022-07-31T07:10:57.116Z,11.77
2022-07-31T07:13:24.231Z,12.53
2022-07-31T07:16:12.421Z,15.23
2022-07-31T07:18:39.248Z,12.93
2022-07-31T07:21:05.987Z,13.50
2022-07-31T07:23:33.919Z,15.57
2022-07-31T07:26:00.684Z,15.93
2022-07-31T07:28:30.691Z,12.83
2022-07-31T07:30:58.205Z,14.30
2022-07-31T07:33:41.767Z,16.30
2022-07-31T07:36:23.426Z,14.63
2022-07-31T07:38:55.128Z,14.23
2022-07-31T07:41:25.998Z,14.10
2022-07-31T07:43:53.962Z,14.30
2022-07-31T07:46:22.815Z,15.57
2022-07-31T07:48:51.035Z,18.10
2022-07-31T07:51:18.086Z,15.30
2022-07-31T07:53:44.882Z,18.10
2022-07-31T07:56:14.529Z,17.37
2022-07-31T07:58:41.293Z,13.57
2022-07-31T08:01:08.709Z,17.00
2022-07-31T08:03:50.185Z,14.87
2022-07-31T08:06:21.513Z,14.70
2022-07-31T08:08:50.268Z,15.67
2022-07-31T08:11:17.981Z,13.70
2022-07-31T08:13:50.259Z,15.80
2022-07-31T08:16:19.683Z,13.67
2022-07-31T08:18:46.441Z,17.13
2022-07-31T08:21:15.554Z,18.23
2022-07-31T08:23:42.371Z,14.03
2022-07-31T08:26:09.273Z,15.57
2022-07-31T08:28:36.817Z,14.23
2022-07-31T08:31:04.073Z,17.00
2022-07-31T08:33:33.003Z,16.17
2022-07-31T08:36:00.780Z,17.73
2022-07-31T08:38:28.827Z,17.67
2022-07-31T08:40:55.626Z,14.57
2022-07-31T08:44:02.436Z,16.90
2022-07-31T08:46:09.961Z,16.87
2022-07-31T08:48:40.745Z,15.43
2022-07-31T08:51:10.657Z,20.23
2022-07-31T08:53:38.961Z,18.37
2022-07-31T08:56:07.924Z,18.63
2022-07-31T08:58:39.078Z,16.40
2022-07-31T09:01:08.131Z,17.13
2022-07-31T09:03:39.220Z,18.90
2022-07-31T09:06:23.568Z,20.13
2022-07-31T09:08:50.482Z,18.87
2022-07-31T09:11:18.759Z,21.27
2022-07-31T09:14:02.838Z,15.93
2022-07-31T09:16:31.327Z,18.07
2022-07-31T09:19:54.023Z,17.27
2022-07-31T09:21:51.960Z,18.30
2022-07-31T09:24:29.459Z,15.90
2022-07-31T09:27:27.987Z,19.30
2022-07-31T09:29:56.866Z,18.63
2022-07-31T09:32:24.138Z,19.03
2022-07-31T09:34:50.878Z,19.17
2022-07-31T09:37:20.667Z,19.57
2022-07-31T09:39:55.502Z,17.80
2022-07-31T09:42:34.621Z,20.00
2022-07-31T09:45:03.035Z,17.73
2022-07-31T09:47:32.388Z,18.67
2022-07-31T09:50:01.688Z,22.37
2022-07-31T09:52:31.236Z,18.67
2022-07-31T09:55:15.905Z,17.73
2022-07-31T09:57:58.639Z,19.70
2022-07-31T10:00:28.324Z,15.43
2022-07-31T10:02:57.007Z,16.20
2022-07-31T10:05:25.888Z,16.27
2022-07-31T10:07:54.461Z,16.23
2022-07-31T10:10:23.543Z,15.63
2022-07-31T10:12:54.825Z,13.03
2022-07-31T10:15:24.018Z,15.93
2022-07-31T10:17:52.344Z,17.43
2022-07-31T10:20:23.557Z,13.87
2022-07-31T10:22:55.538Z,12.93
2022-07-31T10:25:31.624Z,11.73
2022-07-31T10:27:58.712Z,13.73
2022-07-31T10:30:28.400Z,10.37
2022-07-31T10:32:55.981Z,13.97
2022-07-31T10:35:22.872Z,10.13
2022-07-31T10:38:04.100Z,11.43
2022-07-31T10:40:45.391Z,10.98
2022-07-31T10:43:29.172Z,12.13
2022-07-31T10:45:56.878Z,12.80
2022-07-31T10:48:25.955Z,9.68
2022-07-31T10:51:04.794Z,9.50
2022-07-31T10:53:41.427Z,9.70
2022-07-31T10:56:18.008Z,9.77
2022-07-31T10:58:54.406Z,8.07
2022-07-31T11:01:21.794Z,10.88
2022-07-31T11:03:53.195Z,9.27
2022-07-31T11:06:21.592Z,9.98
2022-07-31T11:08:52.395Z,9.70
2022-07-31T11:13:58.207Z,9.45
2022-07-31T11:16:25.523Z,6.63
2022-07-31T11:19:07.043Z,7.15
2022-07-31T11:21:39.898Z,5.70
2022-07-31T11:24:26.891Z,4.65
2022-07-31T11:27:04.870Z,5.93
2022-07-31T11:30:01.674Z,4.70
2022-07-31T11:32:26.278Z,8.63
2022-07-31T11:34:56.219Z,7.13
2022-07-31T11:37:30.660Z,9.20
2022-07-31T11:40:14.560Z,8.35
2022-07-31T11:42:49.965Z,8.32
2022-07-31T11:45:23.145Z,6.25
2022-07-31T11:48:11.233Z,5.88
2022-07-31T11:50:45.004Z,7.38
2022-07-31T11:53:12.380Z,6.05
2022-07-31T11:55:53.957Z,7.50
2022-07-31T11:58:30.937Z,5.70
2022-07-31T12:01:04.696Z,9.95
2022-07-31T12:03:37.208Z,5.80
2022-07-31T12:06:06.303Z,5.22
2022-07-31T12:08:34.935Z,6.55
2022-07-31T12:11:09.144Z,6.18
2022-07-31T12:13:38.530Z,8.85
2022-07-31T12:16:12.053Z,6.65
2022-07-31T12:18:59.723Z,7.85
2022-07-31T12:21:41.405Z,7.05
2022-07-31T12:24:13.564Z,8.15
2022-07-31T12:26:48.869Z,9.02
2022-07-31T12:29:18.832Z,11.95
2022-07-31T12:34:44.167Z,10.18
2022-07-31T12:37:17.128Z,8.15
2022-07-31T12:40:00.989Z,9.80
2022-07-31T12:42:42.999Z,7.90
2022-07-31T12:45:18.447Z,7.10
2022-07-31T12:47:59.559Z,8.50
2022-07-31T12:50:30.984Z,7.82
2022-07-31T12:53:19.941Z,8.52
2022-07-31T12:55:46.932Z,6.20
2022-07-31T12:58:16.407Z,6.68
2022-07-31T13:00:43.160Z,7.63
2022-07-31T13:08:30.284Z,7.50
2022-07-31T13:11:07.546Z,8.05
2022-07-31T13:13:35.278Z,7.43
2022-07-31T13:16:02.209Z,6.47
2022-07-31T13:18:30.152Z,8.20
2022-07-31T13:21:00.742Z,7.60
2022-07-31T13:23:28.044Z,6.20
2022-07-31T13:25:54.933Z,6.05
2022-07-31T13:28:21.852Z,5.93
2022-07-31T13:30:54.695Z,6.95
2022-07-31T13:33:23.370Z,5.47
2022-07-31T13:35:50.206Z,5.25
2022-07-31T13:38:18.194Z,5.57
2022-07-31T13:41:03.947Z,5.40
2022-07-31T13:43:30.867Z,3.97
2022-07-31T13:46:00.514Z,4.85
2022-07-31T13:48:27.894Z,3.60
2022-07-31T13:50:55.081Z,4.63
2022-07-31T13:53:22.003Z,4.28
2022-07-31T13:55:50.319Z,7.07
2022-07-31T13:58:17.874Z,3.95
2022-07-31T14:00:45.179Z,3.75
2022-07-31T14:03:12.952Z,5.05
2022-07-31T14:05:45.418Z,8.10
2022-07-31T14:08:33.248Z,11.98
2022-07-31T14:11:03.042Z,6.85
2022-07-31T14:13:30.166Z,6.07
2022-07-31T14:15:58.045Z,8.90
2022-07-31T14:18:24.810Z,7.85
2022-07-31T14:20:52.279Z,9.43
2022-07-31T14:23:19.653Z,7.22
2022-07-31T14:25:47.074Z,9.35
2022-07-31T14:28:14.213Z,8.40
2022-07-31T14:30:46.617Z,6.93
2022-07-31T14:33:16.915Z,10.38
2022-07-31T14:35:43.595Z,11.57
2022-07-31T14:38:10.619Z,9.45
2022-07-31T14:40:37.600Z,8.30
2022-07-31T14:43:04.565Z,8.25
2022-07-31T14:45:31.384Z,9.82
2022-07-31T14:48:07.852Z,11.40
2022-07-31T14:50:37.713Z,6.78
2022-07-31T14:53:04.835Z,7.15
2022-07-31T14:55:31.916Z,6.82
2022-07-31T14:58:00.137Z,4.13
2022-07-31T15:00:27.426Z,6.53
2022-07-31T15:02:54.512Z,6.43
2022-07-31T15:06:48.835Z,5.82
2022-07-31T15:08:09.362Z,5.22
2022-07-31T15:10:36.224Z,7.95
2022-07-31T15:13:03.123Z,6.65
2022-07-31T15:15:30.030Z,5.25
2022-07-31T15:18:00.698Z,6.53
2022-07-31T15:20:32.842Z,5.07
2022-07-31T15:23:00.243Z,7.28
2022-07-31T15:25:27.065Z,5.72
2022-07-31T15:27:53.841Z,5.65
2022-07-31T15:30:21.580Z,4.80
2022-07-31T15:32:49.023Z,7.45
2022-07-31T15:35:15.971Z,8.88
2022-07-31T15:37:46.223Z,10.18
2022-07-31T15:40:15.366Z,8.25
2022-07-31T15:42:43.837Z,5.90
2022-07-31T15:45:13.433Z,7.20
2022-07-31T15:47:44.381Z,7.47
2022-07-31T15:50:13.903Z,7.32
2022-07-31T15:52:41.459Z,8.73
2022-07-31T15:55:09.531Z,10.70
2022-07-31T15:57:36.597Z,10.47
2022-07-31T16:00:05.535Z,8.65
2022-07-31T16:02:32.643Z,9.23
2022-07-31T16:05:02.637Z,8.97
2022-07-31T16:08:28.799Z,12.43
2022-07-31T16:10:25.812Z,8.97
2022-07-31T16:12:52.721Z,11.87
2022-07-31T16:15:20.515Z,8.63
2022-07-31T16:17:48.273Z,9.40
2022-07-31T16:20:20.638Z,12.23
2022-07-31T16:22:56.858Z,6.73
2022-07-31T16:25:26.939Z,10.13
2022-07-31T16:27:54.319Z,7.87
2022-07-31T16:30:22.489Z,8.17
2022-07-31T16:32:50.065Z,7.97
2022-07-31T16:35:17.477Z,10.37
2022-07-31T16:37:52.687Z,11.40
2022-07-31T16:40:30.315Z,10.30
2022-07-31T16:43:03.650Z,8.20
2022-07-31T16:45:50.246Z,8.87
2022-07-31T16:48:17.063Z,7.17
2022-07-31T16:50:43.807Z,7.77
2022-07-31T16:53:13.604Z,10.17
2022-07-31T16:56:01.470Z,9.40
2022-07-31T16:58:29.321Z,8.17
2022-07-31T17:00:56.578Z,8.00
2022-07-31T17:03:58.686Z,11.27
2022-07-31T17:06:11.601Z,9.60
2022-07-31T17:08:39.410Z,10.03
2022-07-31T17:11:07.587Z,9.83
2022-07-31T17:13:34.375Z,9.93
2022-07-31T17:16:01.132Z,14.43
2022-07-31T17:18:27.925Z,9.70
2022-07-31T17:20:55.818Z,12.97
2022-07-31T17:23:43.109Z,10.90
2022-07-31T17:26:20.757Z,11.40
2022-07-31T17:28:49.274Z,12.37
2022-07-31T17:31:16.217Z,12.60
2022-07-31T17:33:58.414Z,12.37
2022-07-31T17:36:29.285Z,10.47
2022-07-31T17:38:57.174Z,11.83
2022-07-31T17:41:24.618Z,10.30
2022-07-31T17:43:54.094Z,15.23
2022-07-31T17:46:28.188Z,15.27
2022-07-31T17:49:02.002Z,13.57
2022-07-31T17:51:28.850Z,12.23
2022-07-31T17:53:59.218Z,12.90
2022-07-31T17:56:27.853Z,10.07
2022-07-31T17:58:55.840Z,14.40
2022-07-31T18:01:28.467Z,12.07
2022-07-31T18:03:55.854Z,11.70
2022-07-31T18:06:22.699Z,9.77
2022-07-31T18:08:49.465Z,10.10
2022-07-31T18:11:16.287Z,8.80
2022-07-31T18:13:48.826Z,7.80
2022-07-31T18:16:19.280Z,7.83
2022-07-31T18:18:46.383Z,9.70
2022-07-31T18:21:14.476Z,13.30
2022-07-31T18:23:47.271Z,8.33
2022-07-31T18:26:14.569Z,7.83
2022-07-31T18:28:44.367Z,12.17
2022-07-31T18:31:24.181Z,12.70
2022-07-31T18:33:57.845Z,9.17
2022-07-31T18:36:24.636Z,14.20
2022-07-31T18:38:54.117Z,7.63
2022-07-31T18:41:23.241Z,9.77
2022-07-31T18:43:50.313Z,11.37
2022-07-31T18:46:17.167Z,9.83
2022-07-31T18:48:43.974Z,9.83
2022-07-31T18:51:10.797Z,11.00
2022-07-31T18:53:37.659Z,10.77
2022-07-31T18:56:04.593Z,12.60
2022-07-31T18:58:31.390Z,12.30
2022-07-31T19:01:01.247Z,11.43
2022-07-31T19:03:30.746Z,10.03
2022-07-31T19:05:58.599Z,13.53
2022-07-31T19:08:25.427Z,9.67
2022-07-31T19:10:53.635Z,15.93
2022-07-31T19:13:21.788Z,10.30
2022-07-31T19:15:50.704Z,11.30
2022-07-31T19:18:17.847Z,11.83
2022-07-31T19:21:00.074Z,12.40
2022-07-31T19:23:38.561Z,12.43
2022-07-31T19:26:05.555Z,11.90
2022-07-31T19:28:32.874Z,13.10
2022-07-31T19:30:59.638Z,9.70
2022-07-31T19:33:26.561Z,14.70
2022-07-31T19:36:00.351Z,13.90
2022-07-31T19:38:29.327Z,14.93
2022-07-31T19:40:56.099Z,13.73
2022-07-31T19:43:22.882Z,15.73
2022-07-31T19:45:58.834Z,13.90
2022-07-31T19:48:37.002Z,13.13
2022-07-31T19:51:05.970Z,13.47
2022-07-31T19:53:32.902Z,14.77
2022-07-31T19:56:02.133Z,10.20
2022-07-31T19:58:28.905Z,11.50
2022-07-31T20:00:55.692Z,14.67
2022-07-31T20:03:22.573Z,11.03
2022-07-31T20:05:49.370Z,15.70
2022-07-31T20:08:16.055Z,13.53
2022-07-31T20:10:42.869Z,14.70
2022-07-31T20:13:09.815Z,11.83
2022-07-31T20:15:51.267Z,12.33
2022-07-31T20:18:30.708Z,16.60
2022-07-31T20:21:05.447Z,11.17
2022-07-31T20:23:34.260Z,12.00
2022-07-31T20:26:01.494Z,13.77
2022-07-31T20:28:28.391Z,9.33
2022-07-31T20:30:55.136Z,14.77
2022-07-31T20:33:21.985Z,14.73
2022-07-31T20:35:50.586Z,12.90
2022-07-31T20:38:22.015Z,11.77
2022-07-31T20:40:54.225Z,14.07
2022-07-31T20:43:27.118Z,11.37
2022-07-31T20:45:57.424Z,10.90
2022-07-31T20:48:35.274Z,15.23
2022-07-31T20:51:03.830Z,17.13
2022-07-31T20:53:31.118Z,13.57
2022-07-31T20:55:58.612Z,12.70
2022-07-31T20:58:26.397Z,17.47
2022-07-31T21:00:53.541Z,14.70
2022-07-31T21:03:20.702Z,15.87
2022-07-31T21:05:47.962Z,15.70
2022-07-31T21:08:15.380Z,16.00
2022-07-31T21:10:42.213Z,18.67
2022-07-31T21:13:09.474Z,17.47
2022-07-31T21:15:43.359Z,16.27
2022-07-31T21:18:16.628Z,16.77
2022-07-31T21:20:51.040Z,19.10
2022-07-31T21:23:24.240Z,14.17
2022-07-31T21:25:53.117Z,17.77
2022-07-31T21:28:20.748Z,18.33
2022-07-31T21:30:47.794Z,17.73
2022-07-31T21:33:15.148Z,20.57
2022-07-31T21:35:42.317Z,20.23
2022-07-31T21:38:14.672Z,21.33
2022-07-31T21:40:41.545Z,19.97
2022-07-31T21:43:09.604Z,19.47
2022-07-31T21:45:50.655Z,24.37
2022-07-31T21:48:25.283Z,19.20
2022-07-31T21:50:54.854Z,19.17
2022-07-31T21:53:24.899Z,19.43
2022-07-31T21:55:52.032Z,20.83
2022-07-31T21:58:19.242Z,22.23
2022-07-31T22:00:46.517Z,22.77
2022-07-31T22:03:13.401Z,20.67
2022-07-31T22:05:59.245Z,21.73
2022-07-31T22:08:25.945Z,22.53
2022-07-31T22:10:52.775Z,28.90
2022-07-31T22:13:20.334Z,25.70
2022-07-31T22:15:59.294Z,24.60
2022-07-31T22:18:32.500Z,25.00
2022-07-31T22:21:01.213Z,24.63
2022-07-31T22:23:28.798Z,29.43
2022-07-31T22:25:55.922Z,27.90
2022-07-31T22:28:24.115Z,21.37
2022-07-31T22:30:51.963Z,21.33
2022-07-31T22:33:19.780Z,25.60
2022-07-31T22:35:59.354Z,22.23
2022-07-31T22:38:27.920Z,20.47
2022-07-31T22:40:55.069Z,23.77
2022-07-31T22:44:12.036Z,25.40
2022-07-31T22:46:11.915Z,19.63
2022-07-31T22:48:40.563Z,24.27
2022-07-31T22:51:08.002Z,23.83
2022-07-31T22:53:35.110Z,25.50
2022-07-31T22:56:01.916Z,25.60
2022-07-31T22:58:28.639Z,19.60
2022-07-31T23:00:56.354Z,20.43
2022-07-31T23:03:23.089Z,20.87
2022-07-31T23:06:28.111Z,19.93
2022-07-31T23:08:36.935Z,26.97
2022-07-31T23:11:03.824Z,23.07
2022-07-31T23:13:30.539Z,23.97
2022-07-31T23:15:57.316Z,26.70
2022-07-31T23:18:26.539Z,25.27
2022-07-31T23:20:53.336Z,23.23
2022-07-31T23:23:20.072Z,22.73
2022-07-31T23:25:46.823Z,28.90
2022-07-31T23:28:15.376Z,24.30
2022-07-31T23:30:42.245Z,22.03
2022-07-31T23:33:08.962Z,28.20
2022-07-31T23:35:35.711Z,23.93
2022-07-31T23:38:02.483Z,25.43
2022-07-31T23:40:29.302Z,24.93
2022-07-31T23:42:56.026Z,25.63
2022-07-31T23:45:23.564Z,25.73
2022-07-31T23:47:50.889Z,28.23
2022-07-31T23:50:17.928Z,23.80
2022-07-31T23:52:44.729Z,21.07
2022-07-31T23:55:12.090Z,15.70
2022-07-31T23:57:39.976Z,15.10
